sensor_id;sensor_type;location;lat;lon;timestamp;P1;durP1;ratioP1;P2;durP2;ratioP2
12774;SDS011;6451;42.630;23.382;2022-12-18T00:02:20;5.43;;;4.53;;
12774;SDS011;6451;42.630;23.382;2022-12-18T00:04:49;7.13;;;5.30;;
12774;SDS011;6451;42.630;23.382;2022-12-18T00:07:16;5.20;;;4.50;;
12774;SDS011;6451;42.630;23.382;2022-12-18T00:09:43;5.70;;;5.00;;
12774;SDS011;6451;42.630;23.382;2022-12-18T00:12:10;5.67;;;4.70;;
12774;SDS011;6451;42.630;23.382;2022-12-18T00:14:36;5.60;;;4.73;;
12774;SDS011;6451;42.630;23.382;2022-12-18T00:17:03;5.37;;;4.70;;
12774;SDS011;6451;42.630;23.382;2022-12-18T00:19:30;6.63;;;4.93;;
12774;SDS011;6451;42.630;23.382;2022-12-18T00:21:58;5.97;;;4.73;;
12774;SDS011;6451;42.630;23.382;2022-12-18T00:24:25;6.87;;;4.90;;
12774;SDS011;6451;42.630;23.382;2022-12-18T00:26:52;5.50;;;4.90;;
12774;SDS011;6451;42.630;23.382;2022-12-18T00:29:19;5.90;;;4.73;;
12774;SDS011;6451;42.630;23.382;2022-12-18T00:31:46;6.17;;;5.10;;
12774;SDS011;6451;42.630;23.382;2022-12-18T00:34:12;5.33;;;4.73;;
12774;SDS011;6451;42.630;23.382;2022-12-18T00:36:39;6.33;;;5.33;;
12774;SDS011;6451;42.630;23.382;2022-12-18T00:39:09;6.27;;;5.50;;
12774;SDS011;6451;42.630;23.382;2022-12-18T00:41:37;5.37;;;4.77;;
12774;SDS011;6451;42.630;23.382;2022-12-18T00:44:22;5.93;;;5.10;;
12774;SDS011;6451;42.630;23.382;2022-12-18T00:46:49;6.20;;;5.40;;
12774;SDS011;6451;42.630;23.382;2022-12-18T00:49:16;6.27;;;5.67;;
12774;SDS011;6451;42.630;23.382;2022-12-18T00:51:44;5.87;;;5.17;;
12774;SDS011;6451;42.630;23.382;2022-12-18T00:54:13;6.90;;;6.10;;
12774;SDS011;6451;42.630;23.382;2022-12-18T00:56:40;6.50;;;5.67;;
12774;SDS011;6451;42.630;23.382;2022-12-18T00:59:07;6.50;;;5.50;;
12774;SDS011;6451;42.630;23.382;2022-12-18T01:01:34;8.03;;;6.53;;
12774;SDS011;6451;42.630;23.382;2022-12-18T01:04:01;8.73;;;6.07;;
12774;SDS011;6451;42.630;23.382;2022-12-18T01:06:29;8.03;;;6.50;;
12774;SDS011;6451;42.630;23.382;2022-12-18T01:08:56;8.17;;;7.10;;
12774;SDS011;6451;42.630;23.382;2022-12-18T01:11:25;8.50;;;7.37;;
12774;SDS011;6451;42.630;23.382;2022-12-18T01:13:52;8.20;;;6.80;;
12774;SDS011;6451;42.630;23.382;2022-12-18T01:16:19;8.87;;;7.67;;
12774;SDS011;6451;42.630;23.382;2022-12-18T01:18:47;8.73;;;7.47;;
12774;SDS011;6451;42.630;23.382;2022-12-18T01:21:14;9.47;;;7.70;;
12774;SDS011;6451;42.630;23.382;2022-12-18T01:23:45;9.47;;;8.30;;
12774;SDS011;6451;42.630;23.382;2022-12-18T01:26:13;11.20;;;7.30;;
12774;SDS011;6451;42.630;23.382;2022-12-18T01:28:42;9.53;;;8.50;;
12774;SDS011;6451;42.630;23.382;2022-12-18T01:31:13;9.67;;;7.53;;
12774;SDS011;6451;42.630;23.382;2022-12-18T01:33:42;7.73;;;6.87;;
12774;SDS011;6451;42.630;23.382;2022-12-18T01:36:14;8.70;;;7.37;;
12774;SDS011;6451;42.630;23.382;2022-12-18T01:38:42;7.97;;;7.17;;
12774;SDS011;6451;42.630;23.382;2022-12-18T01:41:09;8.10;;;7.10;;
12774;SDS011;6451;42.630;23.382;2022-12-18T01:43:45;9.20;;;7.33;;
12774;SDS011;6451;42.630;23.382;2022-12-18T01:46:15;9.00;;;7.30;;
12774;SDS011;6451;42.630;23.382;2022-12-18T01:48:43;9.00;;;7.17;;
12774;SDS011;6451;42.630;23.382;2022-12-18T01:51:13;8.23;;;6.70;;
12774;SDS011;6451;42.630;23.382;2022-12-18T01:53:41;10.17;;;7.23;;
12774;SDS011;6451;42.630;23.382;2022-12-18T01:56:12;10.57;;;7.13;;
12774;SDS011;6451;42.630;23.382;2022-12-18T01:58:46;9.70;;;7.53;;
12774;SDS011;6451;42.630;23.382;2022-12-18T02:01:20;9.70;;;7.63;;
12774;SDS011;6451;42.630;23.382;2022-12-18T02:03:49;8.83;;;7.27;;
12774;SDS011;6451;42.630;23.382;2022-12-18T02:06:17;8.20;;;7.10;;
12774;SDS011;6451;42.630;23.382;2022-12-18T02:08:56;8.30;;;6.70;;
12774;SDS011;6451;42.630;23.382;2022-12-18T02:11:32;9.07;;;6.97;;
12774;SDS011;6451;42.630;23.382;2022-12-18T02:14:11;8.87;;;7.13;;
12774;SDS011;6451;42.630;23.382;2022-12-18T02:16:45;9.30;;;7.23;;
12774;SDS011;6451;42.630;23.382;2022-12-18T02:19:28;11.57;;;8.17;;
12774;SDS011;6451;42.630;23.382;2022-12-18T02:22:14;9.30;;;7.77;;
12774;SDS011;6451;42.630;23.382;2022-12-18T02:24:56;8.40;;;7.57;;
12774;SDS011;6451;42.630;23.382;2022-12-18T02:27:28;10.83;;;8.70;;
12774;SDS011;6451;42.630;23.382;2022-12-18T02:29:58;11.00;;;9.17;;
12774;SDS011;6451;42.630;23.382;2022-12-18T02:32:28;12.37;;;9.07;;
12774;SDS011;6451;42.630;23.382;2022-12-18T02:34:58;9.57;;;8.03;;
12774;SDS011;6451;42.630;23.382;2022-12-18T02:37:27;9.97;;;8.10;;
12774;SDS011;6451;42.630;23.382;2022-12-18T02:39:57;11.27;;;8.67;;
12774;SDS011;6451;42.630;23.382;2022-12-18T02:42:25;11.30;;;8.77;;
12774;SDS011;6451;42.630;23.382;2022-12-18T02:44:55;10.10;;;8.23;;
12774;SDS011;6451;42.630;23.382;2022-12-18T02:47:23;10.17;;;8.60;;
12774;SDS011;6451;42.630;23.382;2022-12-18T02:49:57;10.53;;;8.80;;
12774;SDS011;6451;42.630;23.382;2022-12-18T02:52:34;10.83;;;8.90;;
12774;SDS011;6451;42.630;23.382;2022-12-18T02:55:13;9.40;;;8.00;;
12774;SDS011;6451;42.630;23.382;2022-12-18T02:57:48;11.47;;;8.93;;
12774;SDS011;6451;42.630;23.382;2022-12-18T03:00:21;12.33;;;8.60;;
12774;SDS011;6451;42.630;23.382;2022-12-18T03:02:56;9.80;;;8.17;;
12774;SDS011;6451;42.630;23.382;2022-12-18T03:05:30;9.73;;;8.13;;
12774;SDS011;6451;42.630;23.382;2022-12-18T03:08:00;9.23;;;8.03;;
12774;SDS011;6451;42.630;23.382;2022-12-18T03:10:33;9.03;;;7.53;;
12774;SDS011;6451;42.630;23.382;2022-12-18T03:13:06;10.50;;;8.47;;
12774;SDS011;6451;42.630;23.382;2022-12-18T03:15:38;10.20;;;7.87;;
12774;SDS011;6451;42.630;23.382;2022-12-18T03:18:10;10.97;;;8.30;;
12774;SDS011;6451;42.630;23.382;2022-12-18T03:20:43;11.07;;;8.37;;
12774;SDS011;6451;42.630;23.382;2022-12-18T03:23:13;10.00;;;8.10;;
12774;SDS011;6451;42.630;23.382;2022-12-18T03:25:44;10.50;;;8.67;;
12774;SDS011;6451;42.630;23.382;2022-12-18T03:28:14;9.17;;;7.93;;
12774;SDS011;6451;42.630;23.382;2022-12-18T03:30:44;10.37;;;8.33;;
12774;SDS011;6451;42.630;23.382;2022-12-18T03:33:15;9.00;;;7.93;;
12774;SDS011;6451;42.630;23.382;2022-12-18T03:35:45;9.20;;;7.97;;
12774;SDS011;6451;42.630;23.382;2022-12-18T03:38:13;8.60;;;7.50;;
12774;SDS011;6451;42.630;23.382;2022-12-18T03:40:44;9.13;;;7.37;;
12774;SDS011;6451;42.630;23.382;2022-12-18T03:43:18;9.33;;;7.53;;
12774;SDS011;6451;42.630;23.382;2022-12-18T03:45:56;10.73;;;8.37;;
12774;SDS011;6451;42.630;23.382;2022-12-18T03:48:29;9.80;;;7.70;;
12774;SDS011;6451;42.630;23.382;2022-12-18T03:51:01;8.23;;;7.30;;
12774;SDS011;6451;42.630;23.382;2022-12-18T03:53:33;8.00;;;6.63;;
12774;SDS011;6451;42.630;23.382;2022-12-18T03:56:05;9.67;;;7.63;;
12774;SDS011;6451;42.630;23.382;2022-12-18T03:58:33;9.00;;;8.00;;
12774;SDS011;6451;42.630;23.382;2022-12-18T04:01:06;9.33;;;7.47;;
12774;SDS011;6451;42.630;23.382;2022-12-18T04:03:34;8.57;;;6.80;;
12774;SDS011;6451;42.630;23.382;2022-12-18T04:06:03;8.80;;;7.33;;
12774;SDS011;6451;42.630;23.382;2022-12-18T04:08:33;9.40;;;7.10;;
12774;SDS011;6451;42.630;23.382;2022-12-18T04:11:01;7.93;;;6.40;;
12774;SDS011;6451;42.630;23.382;2022-12-18T04:13:29;10.90;;;7.17;;
12774;SDS011;6451;42.630;23.382;2022-12-18T04:15:59;9.50;;;7.13;;
12774;SDS011;6451;42.630;23.382;2022-12-18T04:18:27;7.70;;;6.30;;
12774;SDS011;6451;42.630;23.382;2022-12-18T04:20:54;7.97;;;6.67;;
12774;SDS011;6451;42.630;23.382;2022-12-18T04:23:21;7.80;;;6.40;;
12774;SDS011;6451;42.630;23.382;2022-12-18T04:25:48;8.00;;;6.67;;
12774;SDS011;6451;42.630;23.382;2022-12-18T04:28:15;9.10;;;6.90;;
12774;SDS011;6451;42.630;23.382;2022-12-18T04:30:42;7.60;;;6.37;;
12774;SDS011;6451;42.630;23.382;2022-12-18T04:33:09;8.00;;;6.40;;
12774;SDS011;6451;42.630;23.382;2022-12-18T04:35:38;7.83;;;6.27;;
12774;SDS011;6451;42.630;23.382;2022-12-18T04:38:05;8.93;;;6.00;;
12774;SDS011;6451;42.630;23.382;2022-12-18T04:40:33;9.63;;;6.23;;
12774;SDS011;6451;42.630;23.382;2022-12-18T04:43:00;8.43;;;6.53;;
12774;SDS011;6451;42.630;23.382;2022-12-18T04:45:27;8.47;;;6.83;;
12774;SDS011;6451;42.630;23.382;2022-12-18T04:47:54;9.47;;;6.60;;
12774;SDS011;6451;42.630;23.382;2022-12-18T04:50:23;8.77;;;7.30;;
12774;SDS011;6451;42.630;23.382;2022-12-18T04:52:51;10.27;;;7.57;;
12774;SDS011;6451;42.630;23.382;2022-12-18T04:55:19;10.70;;;7.73;;
12774;SDS011;6451;42.630;23.382;2022-12-18T04:57:46;9.70;;;7.43;;
12774;SDS011;6451;42.630;23.382;2022-12-18T05:00:13;10.73;;;7.20;;
12774;SDS011;6451;42.630;23.382;2022-12-18T05:02:40;10.97;;;8.47;;
12774;SDS011;6451;42.630;23.382;2022-12-18T05:05:07;8.77;;;6.83;;
12774;SDS011;6451;42.630;23.382;2022-12-18T05:07:35;9.43;;;7.17;;
12774;SDS011;6451;42.630;23.382;2022-12-18T05:10:11;10.20;;;8.10;;
12774;SDS011;6451;42.630;23.382;2022-12-18T05:12:37;10.30;;;7.60;;
12774;SDS011;6451;42.630;23.382;2022-12-18T05:15:23;12.00;;;8.70;;
12774;SDS011;6451;42.630;23.382;2022-12-18T05:17:50;11.23;;;8.13;;
12774;SDS011;6451;42.630;23.382;2022-12-18T05:20:17;10.63;;;8.20;;
12774;SDS011;6451;42.630;23.382;2022-12-18T05:22:44;11.03;;;8.20;;
12774;SDS011;6451;42.630;23.382;2022-12-18T05:25:13;11.57;;;8.33;;
12774;SDS011;6451;42.630;23.382;2022-12-18T05:27:40;11.20;;;8.40;;
12774;SDS011;6451;42.630;23.382;2022-12-18T05:30:07;10.73;;;8.23;;
12774;SDS011;6451;42.630;23.382;2022-12-18T05:32:35;15.37;;;12.33;;
12774;SDS011;6451;42.630;23.382;2022-12-18T05:35:02;10.87;;;8.40;;
12774;SDS011;6451;42.630;23.382;2022-12-18T05:37:29;11.30;;;8.23;;
12774;SDS011;6451;42.630;23.382;2022-12-18T05:39:56;13.13;;;9.37;;
12774;SDS011;6451;42.630;23.382;2022-12-18T05:42:24;11.27;;;8.50;;
12774;SDS011;6451;42.630;23.382;2022-12-18T05:44:51;12.20;;;9.00;;
12774;SDS011;6451;42.630;23.382;2022-12-18T05:47:19;8.60;;;7.20;;
12774;SDS011;6451;42.630;23.382;2022-12-18T05:49:46;13.27;;;8.57;;
12774;SDS011;6451;42.630;23.382;2022-12-18T05:52:12;10.77;;;8.87;;
12774;SDS011;6451;42.630;23.382;2022-12-18T05:54:39;13.27;;;9.57;;
12774;SDS011;6451;42.630;23.382;2022-12-18T05:57:08;10.40;;;8.10;;
12774;SDS011;6451;42.630;23.382;2022-12-18T05:59:37;11.50;;;8.13;;
12774;SDS011;6451;42.630;23.382;2022-12-18T06:02:03;11.73;;;9.00;;
12774;SDS011;6451;42.630;23.382;2022-12-18T06:04:30;11.83;;;9.27;;
12774;SDS011;6451;42.630;23.382;2022-12-18T06:06:58;15.00;;;9.83;;
12774;SDS011;6451;42.630;23.382;2022-12-18T06:09:24;15.80;;;10.30;;
12774;SDS011;6451;42.630;23.382;2022-12-18T06:11:52;13.30;;;10.10;;
12774;SDS011;6451;42.630;23.382;2022-12-18T06:14:18;12.77;;;10.23;;
12774;SDS011;6451;42.630;23.382;2022-12-18T06:16:47;13.70;;;10.87;;
12774;SDS011;6451;42.630;23.382;2022-12-18T06:19:16;15.00;;;10.40;;
12774;SDS011;6451;42.630;23.382;2022-12-18T06:21:43;14.17;;;9.90;;
12774;SDS011;6451;42.630;23.382;2022-12-18T06:24:10;12.97;;;10.00;;
12774;SDS011;6451;42.630;23.382;2022-12-18T06:26:37;15.23;;;10.47;;
12774;SDS011;6451;42.630;23.382;2022-12-18T06:29:05;13.47;;;10.30;;
12774;SDS011;6451;42.630;23.382;2022-12-18T06:31:32;12.90;;;10.10;;
12774;SDS011;6451;42.630;23.382;2022-12-18T06:34:01;13.80;;;10.80;;
12774;SDS011;6451;42.630;23.382;2022-12-18T06:36:29;14.23;;;11.63;;
12774;SDS011;6451;42.630;23.382;2022-12-18T06:38:56;14.40;;;10.47;;
12774;SDS011;6451;42.630;23.382;2022-12-18T06:41:23;13.43;;;10.07;;
12774;SDS011;6451;42.630;23.382;2022-12-18T06:43:50;15.13;;;11.30;;
12774;SDS011;6451;42.630;23.382;2022-12-18T06:46:17;13.23;;;10.53;;
12774;SDS011;6451;42.630;23.382;2022-12-18T06:48:46;17.03;;;11.37;;
12774;SDS011;6451;42.630;23.382;2022-12-18T06:51:18;15.10;;;11.20;;
12774;SDS011;6451;42.630;23.382;2022-12-18T06:53:45;13.93;;;10.70;;
12774;SDS011;6451;42.630;23.382;2022-12-18T06:56:12;14.00;;;9.63;;
12774;SDS011;6451;42.630;23.382;2022-12-18T06:58:39;15.10;;;11.33;;
12774;SDS011;6451;42.630;23.382;2022-12-18T07:01:07;13.43;;;10.17;;
12774;SDS011;6451;42.630;23.382;2022-12-18T07:03:36;14.37;;;10.73;;
12774;SDS011;6451;42.630;23.382;2022-12-18T07:06:03;13.87;;;9.50;;
12774;SDS011;6451;42.630;23.382;2022-12-18T07:08:33;14.83;;;10.10;;
12774;SDS011;6451;42.630;23.382;2022-12-18T07:11:02;15.53;;;10.43;;
12774;SDS011;6451;42.630;23.382;2022-12-18T07:13:30;14.50;;;10.00;;
12774;SDS011;6451;42.630;23.382;2022-12-18T07:16:03;13.70;;;9.27;;
12774;SDS011;6451;42.630;23.382;2022-12-18T07:18:30;15.30;;;10.83;;
12774;SDS011;6451;42.630;23.382;2022-12-18T07:20:57;14.00;;;10.00;;
12774;SDS011;6451;42.630;23.382;2022-12-18T07:23:24;14.80;;;10.90;;
12774;SDS011;6451;42.630;23.382;2022-12-18T07:25:52;14.53;;;9.77;;
12774;SDS011;6451;42.630;23.382;2022-12-18T07:28:20;14.90;;;10.30;;
12774;SDS011;6451;42.630;23.382;2022-12-18T07:30:47;13.37;;;10.30;;
12774;SDS011;6451;42.630;23.382;2022-12-18T07:33:14;14.17;;;10.57;;
12774;SDS011;6451;42.630;23.382;2022-12-18T07:35:41;14.80;;;10.73;;
12774;SDS011;6451;42.630;23.382;2022-12-18T07:38:08;15.53;;;10.43;;
12774;SDS011;6451;42.630;23.382;2022-12-18T07:40:35;13.53;;;10.03;;
12774;SDS011;6451;42.630;23.382;2022-12-18T07:43:04;14.13;;;10.13;;
12774;SDS011;6451;42.630;23.382;2022-12-18T07:45:30;13.80;;;11.00;;
12774;SDS011;6451;42.630;23.382;2022-12-18T07:47:57;13.63;;;10.20;;
12774;SDS011;6451;42.630;23.382;2022-12-18T07:50:24;14.40;;;10.90;;
12774;SDS011;6451;42.630;23.382;2022-12-18T07:52:51;13.40;;;10.13;;
12774;SDS011;6451;42.630;23.382;2022-12-18T07:55:19;15.23;;;9.73;;
12774;SDS011;6451;42.630;23.382;2022-12-18T07:57:46;15.00;;;10.43;;
12774;SDS011;6451;42.630;23.382;2022-12-18T08:00:14;15.57;;;11.30;;
12774;SDS011;6451;42.630;23.382;2022-12-18T08:02:42;13.67;;;10.10;;
12774;SDS011;6451;42.630;23.382;2022-12-18T08:05:09;14.93;;;10.50;;
12774;SDS011;6451;42.630;23.382;2022-12-18T08:07:36;15.40;;;11.63;;
12774;SDS011;6451;42.630;23.382;2022-12-18T08:10:03;14.70;;;11.07;;
12774;SDS011;6451;42.630;23.382;2022-12-18T08:12:30;16.40;;;11.60;;
12774;SDS011;6451;42.630;23.382;2022-12-18T08:14:57;16.60;;;10.80;;
12774;SDS011;6451;42.630;23.382;2022-12-18T08:17:25;16.50;;;10.80;;
12774;SDS011;6451;42.630;23.382;2022-12-18T08:19:52;15.67;;;11.30;;
12774;SDS011;6451;42.630;23.382;2022-12-18T08:22:19;16.43;;;10.07;;
12774;SDS011;6451;42.630;23.382;2022-12-18T08:24:46;16.23;;;10.13;;
12774;SDS011;6451;42.630;23.382;2022-12-18T08:27:13;15.93;;;11.90;;
12774;SDS011;6451;42.630;23.382;2022-12-18T08:29:39;16.83;;;12.50;;
12774;SDS011;6451;42.630;23.382;2022-12-18T08:32:06;16.00;;;12.40;;
12774;SDS011;6451;42.630;23.382;2022-12-18T08:34:35;18.07;;;12.47;;
12774;SDS011;6451;42.630;23.382;2022-12-18T08:37:02;16.77;;;11.53;;
12774;SDS011;6451;42.630;23.382;2022-12-18T08:39:29;16.73;;;11.87;;
12774;SDS011;6451;42.630;23.382;2022-12-18T08:41:55;16.67;;;12.23;;
12774;SDS011;6451;42.630;23.382;2022-12-18T08:44:40;15.60;;;11.73;;
12774;SDS011;6451;42.630;23.382;2022-12-18T08:47:07;18.50;;;11.80;;
12774;SDS011;6451;42.630;23.382;2022-12-18T08:49:36;16.43;;;11.40;;
12774;SDS011;6451;42.630;23.382;2022-12-18T08:52:03;16.10;;;12.47;;
12774;SDS011;6451;42.630;23.382;2022-12-18T08:54:30;16.03;;;11.17;;
12774;SDS011;6451;42.630;23.382;2022-12-18T08:56:57;14.00;;;10.80;;
12774;SDS011;6451;42.630;23.382;2022-12-18T08:59:25;17.87;;;12.57;;
12774;SDS011;6451;42.630;23.382;2022-12-18T09:01:53;17.93;;;12.97;;
12774;SDS011;6451;42.630;23.382;2022-12-18T09:04:20;16.60;;;12.37;;
12774;SDS011;6451;42.630;23.382;2022-12-18T09:06:49;17.93;;;12.20;;
12774;SDS011;6451;42.630;23.382;2022-12-18T09:09:15;18.53;;;13.40;;
12774;SDS011;6451;42.630;23.382;2022-12-18T09:11:43;21.97;;;14.53;;
12774;SDS011;6451;42.630;23.382;2022-12-18T09:14:09;18.33;;;12.77;;
12774;SDS011;6451;42.630;23.382;2022-12-18T09:16:36;20.07;;;13.30;;
12774;SDS011;6451;42.630;23.382;2022-12-18T09:19:04;18.93;;;12.87;;
12774;SDS011;6451;42.630;23.382;2022-12-18T09:21:32;19.53;;;13.07;;
12774;SDS011;6451;42.630;23.382;2022-12-18T09:24:02;17.63;;;12.47;;
12774;SDS011;6451;42.630;23.382;2022-12-18T09:26:29;21.07;;;13.57;;
12774;SDS011;6451;42.630;23.382;2022-12-18T09:28:56;21.83;;;14.90;;
12774;SDS011;6451;42.630;23.382;2022-12-18T09:31:23;19.13;;;14.37;;
12774;SDS011;6451;42.630;23.382;2022-12-18T09:36:25;20.50;;;14.33;;
12774;SDS011;6451;42.630;23.382;2022-12-18T09:38:52;19.87;;;13.43;;
12774;SDS011;6451;42.630;23.382;2022-12-18T09:44:22;17.87;;;12.67;;
12774;SDS011;6451;42.630;23.382;2022-12-18T09:46:58;16.90;;;12.50;;
12774;SDS011;6451;42.630;23.382;2022-12-18T09:49:32;18.47;;;13.17;;
12774;SDS011;6451;42.630;23.382;2022-12-18T09:52:04;17.43;;;11.70;;
12774;SDS011;6451;42.630;23.382;2022-12-18T09:54:38;16.03;;;10.43;;
12774;SDS011;6451;42.630;23.382;2022-12-18T09:57:12;17.30;;;12.80;;
12774;SDS011;6451;42.630;23.382;2022-12-18T09:59:41;18.33;;;12.70;;
12774;SDS011;6451;42.630;23.382;2022-12-18T10:02:14;18.47;;;13.37;;
12774;SDS011;6451;42.630;23.382;2022-12-18T10:04:42;18.93;;;12.87;;
12774;SDS011;6451;42.630;23.382;2022-12-18T10:07:12;18.50;;;13.67;;
12774;SDS011;6451;42.630;23.382;2022-12-18T10:09:46;15.10;;;10.13;;
12774;SDS011;6451;42.630;23.382;2022-12-18T10:12:22;17.47;;;11.80;;
12774;SDS011;6451;42.630;23.382;2022-12-18T10:14:57;17.30;;;11.57;;
12774;SDS011;6451;42.630;23.382;2022-12-18T10:17:30;25.37;;;15.17;;
12774;SDS011;6451;42.630;23.382;2022-12-18T10:20:09;18.60;;;12.23;;
12774;SDS011;6451;42.630;23.382;2022-12-18T10:22:43;18.10;;;12.13;;
12774;SDS011;6451;42.630;23.382;2022-12-18T10:25:19;19.83;;;12.90;;
12774;SDS011;6451;42.630;23.382;2022-12-18T10:27:52;18.20;;;11.47;;
12774;SDS011;6451;42.630;23.382;2022-12-18T10:30:23;20.73;;;12.63;;
12774;SDS011;6451;42.630;23.382;2022-12-18T10:32:51;15.30;;;10.73;;
12774;SDS011;6451;42.630;23.382;2022-12-18T10:35:19;16.17;;;11.60;;
12774;SDS011;6451;42.630;23.382;2022-12-18T10:38:02;16.93;;;11.87;;
12774;SDS011;6451;42.630;23.382;2022-12-18T10:40:30;17.87;;;10.40;;
12774;SDS011;6451;42.630;23.382;2022-12-18T10:43:05;18.13;;;12.30;;
12774;SDS011;6451;42.630;23.382;2022-12-18T10:45:37;16.33;;;11.37;;
12774;SDS011;6451;42.630;23.382;2022-12-18T10:48:04;18.57;;;12.30;;
12774;SDS011;6451;42.630;23.382;2022-12-18T10:50:46;18.33;;;12.03;;
12774;SDS011;6451;42.630;23.382;2022-12-18T10:53:17;17.23;;;12.20;;
12774;SDS011;6451;42.630;23.382;2022-12-18T10:55:48;18.37;;;13.47;;
12774;SDS011;6451;42.630;23.382;2022-12-18T10:58:20;18.23;;;12.40;;
12774;SDS011;6451;42.630;23.382;2022-12-18T11:01:04;19.10;;;12.60;;
12774;SDS011;6451;42.630;23.382;2022-12-18T11:03:34;18.43;;;13.00;;
12774;SDS011;6451;42.630;23.382;2022-12-18T11:06:04;18.40;;;12.67;;
12774;SDS011;6451;42.630;23.382;2022-12-18T11:08:33;19.17;;;12.70;;
12774;SDS011;6451;42.630;23.382;2022-12-18T11:13:36;20.10;;;12.63;;
12774;SDS011;6451;42.630;23.382;2022-12-18T11:16:04;15.27;;;11.17;;
12774;SDS011;6451;42.630;23.382;2022-12-18T11:18:32;16.60;;;10.90;;
12774;SDS011;6451;42.630;23.382;2022-12-18T11:21:04;16.93;;;11.17;;
12774;SDS011;6451;42.630;23.382;2022-12-18T11:23:33;15.50;;;10.93;;
12774;SDS011;6451;42.630;23.382;2022-12-18T11:26:02;16.83;;;11.20;;
12774;SDS011;6451;42.630;23.382;2022-12-18T11:28:35;15.87;;;10.60;;
12774;SDS011;6451;42.630;23.382;2022-12-18T11:34:00;17.03;;;11.27;;
12774;SDS011;6451;42.630;23.382;2022-12-18T11:36:32;17.40;;;11.87;;
12774;SDS011;6451;42.630;23.382;2022-12-18T11:39:04;17.43;;;11.37;;
12774;SDS011;6451;42.630;23.382;2022-12-18T11:41:39;17.27;;;11.27;;
12774;SDS011;6451;42.630;23.382;2022-12-18T11:44:35;19.73;;;12.43;;
12774;SDS011;6451;42.630;23.382;2022-12-18T11:49:42;17.63;;;11.03;;
12774;SDS011;6451;42.630;23.382;2022-12-18T11:52:15;16.60;;;11.27;;
12774;SDS011;6451;42.630;23.382;2022-12-18T11:54:46;18.40;;;12.10;;
12774;SDS011;6451;42.630;23.382;2022-12-18T11:57:14;17.47;;;11.60;;
12774;SDS011;6451;42.630;23.382;2022-12-18T11:59:54;16.13;;;11.13;;
12774;SDS011;6451;42.630;23.382;2022-12-18T12:02:41;17.23;;;12.03;;
12774;SDS011;6451;42.630;23.382;2022-12-18T12:05:21;16.20;;;10.87;;
12774;SDS011;6451;42.630;23.382;2022-12-18T12:08:00;14.93;;;10.83;;
12774;SDS011;6451;42.630;23.382;2022-12-18T12:10:38;16.40;;;10.97;;
12774;SDS011;6451;42.630;23.382;2022-12-18T12:13:19;16.80;;;11.83;;
12774;SDS011;6451;42.630;23.382;2022-12-18T12:16:00;15.07;;;10.07;;
12774;SDS011;6451;42.630;23.382;2022-12-18T12:18:40;17.80;;;11.93;;
12774;SDS011;6451;42.630;23.382;2022-12-18T12:21:23;16.60;;;10.57;;
12774;SDS011;6451;42.630;23.382;2022-12-18T12:23:57;16.87;;;11.63;;
12774;SDS011;6451;42.630;23.382;2022-12-18T12:26:33;19.60;;;12.27;;
12774;SDS011;6451;42.630;23.382;2022-12-18T12:29:21;19.77;;;12.57;;
12774;SDS011;6451;42.630;23.382;2022-12-18T12:32:07;17.20;;;12.20;;
12774;SDS011;6451;42.630;23.382;2022-12-18T12:34:43;18.30;;;12.07;;
12774;SDS011;6451;42.630;23.382;2022-12-18T12:37:19;19.00;;;12.07;;
12774;SDS011;6451;42.630;23.382;2022-12-18T12:39:54;19.83;;;12.03;;
12774;SDS011;6451;42.630;23.382;2022-12-18T12:42:24;17.40;;;11.53;;
12774;SDS011;6451;42.630;23.382;2022-12-18T12:45:20;18.77;;;11.97;;
12774;SDS011;6451;42.630;23.382;2022-12-18T12:47:54;16.83;;;12.30;;
12774;SDS011;6451;42.630;23.382;2022-12-18T12:50:22;18.63;;;12.77;;
12774;SDS011;6451;42.630;23.382;2022-12-18T12:52:50;20.37;;;12.53;;
12774;SDS011;6451;42.630;23.382;2022-12-18T12:55:20;17.67;;;12.27;;
12774;SDS011;6451;42.630;23.382;2022-12-18T13:00:24;17.60;;;12.80;;
12774;SDS011;6451;42.630;23.382;2022-12-18T13:02:59;18.17;;;12.60;;
12774;SDS011;6451;42.630;23.382;2022-12-18T13:05:37;23.80;;;13.77;;
12774;SDS011;6451;42.630;23.382;2022-12-18T13:08:10;21.33;;;13.50;;
12774;SDS011;6451;42.630;23.382;2022-12-18T13:10:39;20.87;;;13.20;;
12774;SDS011;6451;42.630;23.382;2022-12-18T13:13:07;19.47;;;13.30;;
12774;SDS011;6451;42.630;23.382;2022-12-18T13:15:38;20.17;;;13.40;;
12774;SDS011;6451;42.630;23.382;2022-12-18T13:18:19;19.53;;;14.10;;
12774;SDS011;6451;42.630;23.382;2022-12-18T13:20:48;18.30;;;12.87;;
12774;SDS011;6451;42.630;23.382;2022-12-18T13:23:25;21.23;;;14.47;;
12774;SDS011;6451;42.630;23.382;2022-12-18T13:25:58;20.50;;;13.77;;
12774;SDS011;6451;42.630;23.382;2022-12-18T13:34:36;21.23;;;13.23;;
12774;SDS011;6451;42.630;23.382;2022-12-18T13:46:00;21.83;;;13.47;;
12774;SDS011;6451;42.630;23.382;2022-12-18T13:48:31;20.80;;;12.90;;
12774;SDS011;6451;42.630;23.382;2022-12-18T13:51:02;20.17;;;13.67;;
12774;SDS011;6451;42.630;23.382;2022-12-18T13:56:01;17.87;;;13.77;;
12774;SDS011;6451;42.630;23.382;2022-12-18T13:58:29;19.03;;;13.87;;
12774;SDS011;6451;42.630;23.382;2022-12-18T14:00:56;19.20;;;12.60;;
12774;SDS011;6451;42.630;23.382;2022-12-18T14:03:25;20.97;;;13.90;;
12774;SDS011;6451;42.630;23.382;2022-12-18T14:05:54;19.87;;;13.27;;
12774;SDS011;6451;42.630;23.382;2022-12-18T14:08:29;18.43;;;13.53;;
12774;SDS011;6451;42.630;23.382;2022-12-18T14:11:00;21.17;;;13.33;;
12774;SDS011;6451;42.630;23.382;2022-12-18T14:13:29;18.93;;;13.33;;
12774;SDS011;6451;42.630;23.382;2022-12-18T14:15:59;18.47;;;13.07;;
12774;SDS011;6451;42.630;23.382;2022-12-18T14:18:29;18.40;;;13.57;;
12774;SDS011;6451;42.630;23.382;2022-12-18T14:21:05;23.03;;;14.67;;
12774;SDS011;6451;42.630;23.382;2022-12-18T14:23:35;19.27;;;14.23;;
12774;SDS011;6451;42.630;23.382;2022-12-18T14:26:19;20.63;;;13.17;;
12774;SDS011;6451;42.630;23.382;2022-12-18T14:28:48;17.33;;;13.03;;
12774;SDS011;6451;42.630;23.382;2022-12-18T14:31:18;16.53;;;11.60;;
12774;SDS011;6451;42.630;23.382;2022-12-18T14:33:47;19.17;;;11.77;;
12774;SDS011;6451;42.630;23.382;2022-12-18T14:36:15;16.27;;;10.73;;
12774;SDS011;6451;42.630;23.382;2022-12-18T14:38:48;16.20;;;11.80;;
12774;SDS011;6451;42.630;23.382;2022-12-18T14:41:17;15.93;;;10.47;;
12774;SDS011;6451;42.630;23.382;2022-12-18T14:43:46;17.57;;;11.23;;
12774;SDS011;6451;42.630;23.382;2022-12-18T14:46:33;16.47;;;11.03;;
12774;SDS011;6451;42.630;23.382;2022-12-18T14:49:02;16.27;;;10.97;;
12774;SDS011;6451;42.630;23.382;2022-12-18T14:51:32;20.73;;;14.07;;
12774;SDS011;6451;42.630;23.382;2022-12-18T14:54:02;14.13;;;10.27;;
12774;SDS011;6451;42.630;23.382;2022-12-18T14:56:34;16.43;;;11.00;;
12774;SDS011;6451;42.630;23.382;2022-12-18T14:59:03;15.53;;;10.30;;
12774;SDS011;6451;42.630;23.382;2022-12-18T15:01:33;15.97;;;10.70;;
12774;SDS011;6451;42.630;23.382;2022-12-18T15:04:03;16.40;;;10.47;;
12774;SDS011;6451;42.630;23.382;2022-12-18T15:06:32;15.17;;;10.57;;
12774;SDS011;6451;42.630;23.382;2022-12-18T15:09:03;16.80;;;10.93;;
12774;SDS011;6451;42.630;23.382;2022-12-18T15:11:33;17.80;;;11.10;;
12774;SDS011;6451;42.630;23.382;2022-12-18T15:17:00;15.60;;;10.80;;
12774;SDS011;6451;42.630;23.382;2022-12-18T15:22:25;15.47;;;10.60;;
12774;SDS011;6451;42.630;23.382;2022-12-18T15:24:55;16.97;;;10.43;;
12774;SDS011;6451;42.630;23.382;2022-12-18T15:27:29;18.03;;;11.20;;
12774;SDS011;6451;42.630;23.382;2022-12-18T15:32:44;16.33;;;10.87;;